Time;durP1;ratioP1;P1;durP2;ratioP2;P2;SDS_P1;SDS_P2;PMS_P1;PMS_P2;Temp;Humidity;BMP_temperature;BMP_pressure;BME280_temperature;BME280_humidity;BME280_pressure;Samples;Min_cycle;Max_cycle;Signal;HPM_P1;HPM_P2
2022/09/16 00:02:22;;;;;;;3.22;2.13;;;19.00;99.90;;;;;;5064680;28;20119;-76
2022/09/16 00:04:48;;;;;;;5.75;1.98;;;19.00;99.90;;;;;;5065718;28;20082;-76
2022/09/16 00:07:14;;;;;;;2.80;2.00;;;19.00;99.90;;;;;;5068655;28;20064;-76
2022/09/16 00:09:39;;;;;;;4.97;2.08;;;18.90;99.90;;;;;;5069834;28;20489;-77
2022/09/16 00:12:07;;;;;;;4.55;2.03;;;18.90;99.90;;;;;;5068885;28;20016;-76
2022/09/16 00:14:33;;;;;;;5.22;2.10;;;18.90;99.90;;;;;;5072038;28;20460;-76
2022/09/16 00:16:58;;;;;;;2.40;1.75;;;18.90;99.90;;;;;;5071912;28;20028;-77
2022/09/16 00:19:24;;;;;;;4.35;2.00;;;18.80;99.90;;;;;;5074788;28;20024;-76
2022/09/16 00:21:50;;;;;;;4.60;1.70;;;18.80;99.90;;;;;;5075008;28;20083;-76
2022/09/16 00:24:16;;;;;;;3.70;1.88;;;18.80;99.90;;;;;;5077329;28;20364;-75
2022/09/16 00:26:42;;;;;;;7.30;2.45;;;18.70;99.90;;;;;;5074371;28;20024;-77
2022/09/16 00:29:09;;;;;;;4.22;2.15;;;18.70;99.90;;;;;;5063391;28;20056;-76
2022/09/16 00:31:35;;;;;;;2.42;1.70;;;18.70;99.90;;;;;;5067724;28;20052;-77
2022/09/16 00:34:01;;;;;;;3.13;2.13;;;18.70;99.90;;;;;;5068789;28;20028;-76
2022/09/16 00:36:27;;;;;;;3.90;2.33;;;18.70;99.90;;;;;;5070147;28;20052;-76
2022/09/16 00:38:54;;;;;;;6.22;2.22;;;18.70;99.90;;;;;;5072410;28;20025;-77
2022/09/16 00:41:31;;;;;;;7.07;2.50;;;18.70;99.90;;;;;;5072210;28;20158;-77
2022/09/16 00:44:06;;;;;;;7.68;2.00;;;18.70;99.90;;;;;;5073843;28;20025;-76
2022/09/16 00:46:42;;;;;;;5.15;2.25;;;18.70;99.90;;;;;;5074381;28;20021;-76
2022/09/16 00:49:19;;;;;;;3.10;2.00;;;18.70;99.90;;;;;;5068986;28;20017;-76
2022/09/16 00:51:48;;;;;;;3.85;2.17;;;18.80;99.90;;;;;;5070735;28;20384;-76
2022/09/16 00:54:17;;;;;;;5.13;2.22;;;18.80;99.90;;;;;;5072811;28;20017;-77
2022/09/16 00:56:46;;;;;;;3.28;1.95;;;18.80;99.90;;;;;;5057497;28;20037;-77
2022/09/16 00:59:19;;;;;;;4.15;1.75;;;18.70;99.90;;;;;;5062839;28;20024;-76
2022/09/16 01:01:46;;;;;;;5.70;2.10;;;18.70;99.90;;;;;;5068952;28;20029;-77
2022/09/16 01:04:23;;;;;;;4.53;1.98;;;18.70;99.90;;;;;;5064575;28;20028;-75
2022/09/16 01:06:50;;;;;;;3.00;2.03;;;18.70;99.90;;;;;;5063161;28;20021;-76
2022/09/16 01:09:18;;;;;;;7.20;2.42;;;18.60;99.90;;;;;;5068222;28;20388;-76
2022/09/16 01:11:43;;;;;;;5.57;2.45;;;18.60;99.90;;;;;;5063788;28;20021;-77
2022/09/16 01:17:08;;;;;;;6.78;2.63;;;18.60;99.90;;;;;;5072985;28;20541;-76
2022/09/16 01:20:10;;;;;;;5.35;2.40;;;18.60;99.90;;;;;;5070720;28;20025;-76
2022/09/16 01:22:56;;;;;;;3.58;2.22;;;18.60;99.90;;;;;;5069418;28;20025;-78
2022/09/16 01:25:27;;;;;;;9.65;2.58;;;18.60;99.90;;;;;;5074516;28;20020;-78
2022/09/16 01:28:18;;;;;;;2.45;1.92;;;18.60;99.90;;;;;;5071208;28;20024;-77
2022/09/16 01:30:59;;;;;;;;;;;18.70;99.90;;;;;;5057634;28;20025;-77
2022/09/16 01:34:00;;;;;;;4.80;2.03;;;18.60;99.90;;;;;;5074957;28;20464;-77
2022/09/16 01:36:47;;;;;;;5.45;2.55;;;18.60;99.90;;;;;;5072951;28;20052;-77
2022/09/16 01:39:27;;;;;;;3.67;2.10;;;18.60;99.90;;;;;;5068151;28;20408;-78
2022/09/16 01:42:06;;;;;;;7.75;2.50;;;18.60;99.90;;;;;;5061761;28;20029;-77
2022/09/16 01:45:03;;;;;;;7.95;2.95;;;18.60;99.90;;;;;;5064744;28;20035;-77
2022/09/16 01:47:40;;;;;;;5.38;2.20;;;18.60;99.90;;;;;;5068917;28;20021;-76
2022/09/16 01:50:36;;;;;;;3.00;2.05;;;18.60;99.90;;;;;;5070263;28;20024;-77
2022/09/16 01:53:18;;;;;;;5.55;2.53;;;18.60;99.90;;;;;;5074925;28;20078;-77
2022/09/16 01:55:44;;;;;;;5.45;2.40;;;18.60;99.90;;;;;;5067943;28;20500;-77
2022/09/16 01:58:35;;;;;;;6.18;2.22;;;18.60;99.90;;;;;;5073065;28;20416;-78
2022/09/16 02:01:22;;;;;;;9.45;2.90;;;18.60;99.90;;;;;;5072076;28;20473;-77
2022/09/16 02:03:53;;;;;;;6.40;2.20;;;18.70;99.90;;;;;;5075581;28;20028;-79
2022/09/16 02:06:25;;;;;;;4.18;2.72;;;18.70;99.90;;;;;;5067982;28;20474;-77
2022/09/16 02:08:59;;;;;;;6.93;2.30;;;18.70;99.90;;;;;;5058823;28;20021;-78
2022/09/16 02:11:24;;;;;;;5.97;2.28;;;18.70;99.90;;;;;;5059467;28;20027;-79
2022/09/16 02:14:01;;;;;;;7.20;2.70;;;18.70;99.90;;;;;;5061121;28;20480;-77
2022/09/16 02:16:51;;;;;;;7.38;2.75;;;18.70;99.90;;;;;;5059865;28;20024;-78
2022/09/16 02:19:29;;;;;;;6.80;2.25;;;18.70;99.90;;;;;;5065599;28;20086;-77
2022/09/16 02:21:57;;;;;;;6.35;2.53;;;18.70;99.90;;;;;;5068167;28;20028;-78
2022/09/16 02:24:26;;;;;;;4.60;3.10;;;18.70;99.90;;;;;;5070007;28;20111;-78
2022/09/16 02:26:59;;;;;;;3.28;2.20;;;18.70;99.90;;;;;;5073923;28;20012;-77
2022/09/16 02:29:29;;;;;;;4.35;2.42;;;18.70;99.90;;;;;;5071914;28;20369;-78
2022/09/16 02:31:59;;;;;;;7.50;2.47;;;18.70;99.90;;;;;;5075428;28;20016;-79
2022/09/16 02:34:57;;;;;;;9.90;2.65;;;18.70;99.90;;;;;;5076007;28;20108;-77
2022/09/16 02:37:29;;;;;;;10.50;2.58;;;18.70;99.90;;;;;;5048295;28;20048;-78
2022/09/16 02:40:01;;;;;;;6.03;3.22;;;18.80;99.90;;;;;;5060430;28;20024;-78
2022/09/16 02:42:28;;;;;;;4.53;2.25;;;18.80;99.90;;;;;;5059439;28;20017;-78
2022/09/16 02:44:55;;;;;;;3.42;2.75;;;18.80;99.90;;;;;;5063044;28;20026;-78
2022/09/16 02:47:30;;;;;;;8.05;2.70;;;18.80;99.90;;;;;;5059864;28;20036;-77
2022/09/16 02:50:00;;;;;;;4.18;2.17;;;18.80;99.90;;;;;;5063645;28;20031;-78
2022/09/16 02:52:57;;;;;;;4.30;2.55;;;18.80;99.90;;;;;;5068058;28;20017;-78
2022/09/16 02:55:49;;;;;;;4.43;2.47;;;18.80;99.90;;;;;;5065122;28;20041;-78
2022/09/16 02:58:15;;;;;;;10.18;2.70;;;18.80;99.90;;;;;;5068950;28;20082;-77
2022/09/16 03:00:45;;;;;;;14.48;2.92;;;18.70;99.90;;;;;;5066921;28;20055;-78
2022/09/16 03:03:12;;;;;;;7.90;4.13;;;18.70;99.90;;;;;;5084405;28;20527;-79
2022/09/16 03:06:09;;;;;;;5.97;2.75;;;18.70;99.90;;;;;;5069286;28;20287;-78
2022/09/16 03:08:36;;;;;;;7.82;3.00;;;18.70;99.90;;;;;;5075072;28;20043;-79
2022/09/16 03:11:31;;;;;;;11.05;3.45;;;18.60;99.90;;;;;;5079036;28;20020;-78
2022/09/16 03:14:10;;;;;;;3.58;2.80;;;18.60;99.90;;;;;;5057664;28;20041;-79
2022/09/16 03:16:59;;;;;;;6.90;3.30;;;18.60;99.90;;;;;;5061797;28;20017;-78
2022/09/16 03:19:51;;;;;;;8.23;3.72;;;18.50;99.90;;;;;;5063428;28;20029;-78
2022/09/16 03:22:30;;;;;;;8.07;3.97;;;18.50;99.90;;;;;;5053753;28;20061;-79
2022/09/16 03:25:26;;;;;;;7.85;3.50;;;18.50;99.90;;;;;;5071610;28;20495;-78
2022/09/16 03:28:07;;;;;;;10.05;4.20;;;18.40;99.90;;;;;;5073318;28;20548;-78
2022/09/16 03:30:38;;;;;;;9.88;3.88;;;18.40;99.90;;;;;;5067231;28;20035;-78
2022/09/16 03:33:18;;;;;;;5.15;3.72;;;18.40;99.90;;;;;;5077679;28;20381;-78
2022/09/16 03:35:48;;;;;;;16.80;4.38;;;18.40;99.90;;;;;;5067575;28;20045;-79
2022/09/16 03:38:16;;;;;;;13.10;3.70;;;18.40;99.90;;;;;;5061507;28;20086;-79
2022/09/16 03:40:42;;;;;;;11.50;4.38;;;18.40;99.90;;;;;;5061071;28;20060;-79
2022/09/16 03:43:13;;;;;;;8.63;4.13;;;18.50;99.90;;;;;;5064576;28;20032;-78
2022/09/16 03:45:41;;;;;;;6.05;3.95;;;18.50;99.90;;;;;;5062054;28;20040;-80
2022/09/16 03:48:08;;;;;;;8.15;4.25;;;18.50;99.90;;;;;;5069649;28;20016;-79
2022/09/16 03:50:34;;;;;;;5.70;4.00;;;18.60;99.90;;;;;;5063921;28;20021;-79
2022/09/16 03:53:00;;;;;;;8.00;5.38;;;18.60;99.90;;;;;;5072506;28;20468;-78
2022/09/16 03:55:27;;;;;;;12.75;5.20;;;18.60;99.90;;;;;;5067159;28;20021;-78
2022/09/16 03:57:53;;;;;;;11.57;4.03;;;18.60;99.90;;;;;;5065602;28;20032;-78
2022/09/16 04:00:20;;;;;;;6.05;4.25;;;18.60;99.90;;;;;;5070732;28;20031;-78
2022/09/16 04:02:46;;;;;;;8.82;4.57;;;18.60;99.90;;;;;;5065485;28;20028;-79
2022/09/16 04:05:11;;;;;;;5.72;3.63;;;18.60;99.90;;;;;;5075788;28;20035;-78
2022/09/16 04:07:37;;;;;;;7.05;3.83;;;18.60;99.90;;;;;;5065648;28;20025;-78
2022/09/16 04:10:04;;;;;;;7.40;4.53;;;18.70;99.90;;;;;;5064609;28;20025;-78
2022/09/16 04:12:30;;;;;;;8.63;4.85;;;18.70;99.90;;;;;;5060187;28;20037;-79
2022/09/16 04:14:56;;;;;;;10.38;4.40;;;18.70;99.90;;;;;;5060856;28;20390;-79
2022/09/16 04:17:22;;;;;;;7.50;4.45;;;18.70;99.90;;;;;;5064817;28;20078;-79
2022/09/16 04:19:48;;;;;;;9.02;3.92;;;18.70;99.90;;;;;;5060962;28;20021;-79
2022/09/16 04:22:14;;;;;;;7.03;4.18;;;18.70;99.90;;;;;;5063766;28;20074;-78
2022/09/16 04:24:40;;;;;;;6.57;4.65;;;18.70;99.90;;;;;;5068951;28;20017;-79
2022/09/16 04:27:06;;;;;;;8.85;4.22;;;18.70;99.90;;;;;;5073352;28;20036;-78
2022/09/16 04:29:32;;;;;;;14.00;4.85;;;18.70;99.90;;;;;;5074569;28;20130;-79
2022/09/16 04:31:58;;;;;;;6.72;3.95;;;18.70;99.90;;;;;;5077560;28;20012;-78
2022/09/16 04:34:24;;;;;;;10.90;4.05;;;18.70;99.90;;;;;;5077116;28;20033;-78
2022/09/16 04:36:50;;;;;;;8.25;4.22;;;18.70;99.90;;;;;;5059422;28;20128;-80
2022/09/16 04:39:15;;;;;;;9.40;4.25;;;18.70;99.90;;;;;;5060272;28;20077;-78
2022/09/16 04:41:41;;;;;;;8.70;5.20;;;18.70;99.90;;;;;;5067428;28;20397;-78
2022/09/16 04:44:10;;;;;;;8.15;3.72;;;18.70;99.90;;;;;;5068161;28;20055;-79
2022/09/16 04:46:36;;;;;;;7.90;4.47;;;18.70;99.90;;;;;;5066933;28;20425;-79
2022/09/16 04:49:02;;;;;;;5.57;4.20;;;18.70;99.90;;;;;;5062839;28;20067;-78
2022/09/16 04:51:28;;;;;;;7.75;4.13;;;18.70;99.90;;;;;;5077776;28;20108;-79
2022/09/16 04:53:56;;;;;;;8.35;5.32;;;18.70;99.90;;;;;;5066049;28;20031;-79
2022/09/16 04:56:25;;;;;;;10.50;4.47;;;18.70;99.90;;;;;;5071646;28;20369;-78
2022/09/16 04:58:53;;;;;;;6.65;5.22;;;18.70;99.90;;;;;;5076191;28;20023;-79
2022/09/16 05:01:24;;;;;;;13.68;5.13;;;18.70;99.90;;;;;;5073173;28;20056;-79
2022/09/16 05:03:53;;;;;;;7.13;4.30;;;18.70;99.90;;;;;;5072404;28;20025;-79
2022/09/16 05:06:28;;;;;;;11.45;4.82;;;18.70;99.90;;;;;;5075470;28;20378;-78
2022/09/16 05:08:55;;;;;;;12.40;4.97;;;18.70;99.90;;;;;;5073287;28;20100;-78
2022/09/16 05:11:24;;;;;;;7.43;4.18;;;18.70;99.90;;;;;;5057709;28;20030;-78
2022/09/16 05:13:51;;;;;;;5.63;3.72;;;18.70;99.90;;;;;;5058553;28;20029;-79
2022/09/16 05:16:19;;;;;;;9.95;4.57;;;18.70;99.90;;;;;;5061211;28;20381;-79
2022/09/16 05:18:47;;;;;;;6.97;4.53;;;18.70;99.90;;;;;;5065080;28;20024;-79
2022/09/16 05:21:16;;;;;;;12.98;5.15;;;18.70;99.90;;;;;;5061807;28;20017;-79
2022/09/16 05:23:42;;;;;;;9.30;4.40;;;18.70;99.90;;;;;;5067462;28;20401;-79
2022/09/16 05:26:13;;;;;;;8.07;4.43;;;18.70;99.90;;;;;;5069936;28;20088;-78
2022/09/16 05:28:39;;;;;;;9.43;4.47;;;18.70;99.90;;;;;;5073854;28;20020;-80
2022/09/16 05:31:20;;;;;;;9.73;4.78;;;18.70;99.90;;;;;;5074172;28;20032;-79
2022/09/16 05:33:53;;;;;;;9.02;4.82;;;18.80;99.90;;;;;;5065093;28;20103;-79
2022/09/16 05:36:19;;;;;;;7.78;4.00;;;18.80;99.90;;;;;;5075230;28;20095;-78
2022/09/16 05:38:45;;;;;;;7.38;4.20;;;18.80;99.90;;;;;;5072180;28;20017;-79
2022/09/16 05:41:11;;;;;;;6.47;4.13;;;18.80;99.90;;;;;;5069000;28;20042;-77
2022/09/16 05:43:38;;;;;;;11.85;4.55;;;18.80;99.90;;;;;;5065197;28;20025;-78
2022/09/16 05:46:05;;;;;;;6.90;4.32;;;18.80;99.90;;;;;;5072914;28;20500;-79
2022/09/16 05:48:32;;;;;;;9.30;4.55;;;18.80;99.90;;;;;;5072312;28;20092;-79
2022/09/16 05:51:01;;;;;;;10.95;4.55;;;18.70;99.90;;;;;;5072896;28;20028;-79
2022/09/16 05:53:29;;;;;;;8.63;4.38;;;18.70;99.90;;;;;;5070667;28;20056;-78
2022/09/16 05:56:09;;;;;;;6.13;4.63;;;18.70;99.90;;;;;;5067773;28;20031;-78
2022/09/16 05:58:35;;;;;;;13.88;4.65;;;18.70;99.90;;;;;;5070090;28;20385;-78
2022/09/16 06:01:13;;;;;;;7.93;4.45;;;18.60;99.90;;;;;;5074570;28;20048;-79
2022/09/16 06:03:41;;;;;;;14.60;4.90;;;18.60;99.90;;;;;;5074639;28;20039;-78
2022/09/16 06:06:14;;;;;;;9.75;4.70;;;18.60;99.90;;;;;;5075200;28;20025;-80
2022/09/16 06:08:40;;;;;;;8.60;4.18;;;18.60;99.90;;;;;;5062679;28;20040;-79
2022/09/16 06:11:09;;;;;;;6.68;4.00;;;18.70;99.90;;;;;;5068282;28;20029;-79
2022/09/16 06:13:36;;;;;;;9.23;3.80;;;18.70;99.90;;;;;;5061045;28;20504;-79
2022/09/16 06:16:02;;;;;;;10.15;5.28;;;18.70;99.90;;;;;;5060592;28;20027;-79
2022/09/16 06:18:29;;;;;;;11.07;4.97;;;18.70;99.90;;;;;;5069652;28;20025;-79
2022/09/16 06:20:56;;;;;;;9.75;4.65;;;18.70;99.90;;;;;;5064583;28;20062;-79
2022/09/16 06:23:23;;;;;;;9.13;4.45;;;18.70;99.90;;;;;;5076456;28;20013;-79
2022/09/16 06:25:59;;;;;;;8.93;4.68;;;18.80;99.90;;;;;;5072135;28;20031;-79
2022/09/16 06:28:25;;;;;;;8.98;4.93;;;18.80;99.90;;;;;;5069023;28;20538;-79
2022/09/16 06:31:20;;;;;;;5.20;3.58;;;18.90;99.90;;;;;;5068376;28;20021;-79
2022/09/16 06:33:46;;;;;;;6.57;4.80;;;18.90;99.90;;;;;;5064296;28;20033;-79
2022/09/16 06:36:21;;;;;;;10.93;5.03;;;18.90;99.90;;;;;;5063607;28;20045;-79
2022/09/16 06:38:47;;;;;;;9.07;4.32;;;19.00;99.90;;;;;;5074515;28;20027;-79
2022/09/16 06:41:15;;;;;;;7.13;5.38;;;19.10;99.90;;;;;;5064649;28;20060;-79
2022/09/16 06:43:44;;;;;;;10.60;5.03;;;19.10;99.90;;;;;;5073994;28;20020;-79
2022/09/16 06:46:15;;;;;;;9.77;5.45;;;19.20;99.90;;;;;;5072697;28;20033;-80
2022/09/16 06:48:43;;;;;;;8.85;5.32;;;19.30;99.90;;;;;;5077591;28;20021;-78
2022/09/16 06:51:12;;;;;;;6.35;4.60;;;19.40;99.90;;;;;;5075656;28;20108;-78
2022/09/16 06:53:38;;;;;;;7.72;4.95;;;19.40;99.90;;;;;;5079452;28;20146;-79
2022/09/16 06:56:07;;;;;;;8.32;5.35;;;19.40;99.90;;;;;;5076465;28;20032;-79
2022/09/16 06:58:35;;;;;;;10.50;4.75;;;19.40;99.90;;;;;;5060728;28;20376;-79
2022/09/16 07:01:10;;;;;;;9.70;5.50;;;19.40;99.90;;;;;;5064579;28;20526;-79
2022/09/16 07:03:38;;;;;;;11.30;4.40;;;19.40;99.90;;;;;;5062651;28;20020;-79
2022/09/16 07:06:04;;;;;;;6.50;4.80;;;19.40;99.90;;;;;;5072657;28;20407;-80
2022/09/16 07:08:32;;;;;;;12.13;5.10;;;19.50;99.90;;;;;;5065915;28;20029;-79
2022/09/16 07:11:13;;;;;;;9.38;4.60;;;19.50;99.90;;;;;;5072692;28;20031;-80
2022/09/16 07:13:40;;;;;;;10.82;5.03;;;19.50;99.90;;;;;;5068919;28;20040;-79
2022/09/16 07:16:11;;;;;;;6.38;4.32;;;19.60;99.90;;;;;;5073001;28;20111;-80
2022/09/16 07:18:37;;;;;;;7.90;4.43;;;19.60;99.90;;;;;;5073071;28;20026;-80
2022/09/16 07:21:12;;;;;;;9.68;5.10;;;19.60;99.90;;;;;;5074394;28;20461;-79
2022/09/16 07:23:39;;;;;;;6.72;4.30;;;19.60;99.90;;;;;;5078416;28;20126;-80
2022/09/16 07:26:09;;;;;;;13.35;4.97;;;19.60;99.90;;;;;;5075943;28;20059;-80
2022/09/16 07:28:35;;;;;;;8.73;5.03;;;19.60;99.90;;;;;;5074395;28;20021;-80
2022/09/16 07:31:02;;;;;;;8.43;5.07;;;19.70;99.90;;;;;;5073238;28;20466;-80
2022/09/16 07:33:32;;;;;;;7.07;4.60;;;19.80;99.90;;;;;;5074251;28;20020;-79
2022/09/16 07:36:00;;;;;;;7.68;4.90;;;19.80;99.90;;;;;;5072642;28;20452;-79
2022/09/16 07:38:28;;;;;;;9.80;4.53;;;19.90;99.90;;;;;;5066122;28;20523;-80
2022/09/16 07:40:54;;;;;;;14.02;6.60;;;19.90;99.90;;;;;;5076112;28;20473;-79
2022/09/16 07:43:20;;;;;;;23.05;10.02;;;19.90;99.90;;;;;;5077199;28;20109;-79
2022/09/16 07:45:53;;;;;;;19.08;6.13;;;20.00;99.90;;;;;;5065375;28;20082;-80
2022/09/16 07:48:19;;;;;;;9.25;4.68;;;20.10;99.90;;;;;;5060166;28;20069;-79
2022/09/16 07:50:57;;;;;;;6.88;4.45;;;20.20;99.90;;;;;;5061208;28;20446;-80
2022/09/16 07:53:23;;;;;;;8.05;5.60;;;20.20;99.90;;;;;;5062328;28;20107;-79
2022/09/16 07:55:49;;;;;;;8.80;5.93;;;20.30;99.90;;;;;;5074343;28;20055;-79
2022/09/16 07:58:16;;;;;;;26.50;12.88;;;20.30;99.90;;;;;;5067238;28;20025;-78
2022/09/16 08:00:46;;;;;;;21.48;9.57;;;20.30;99.90;;;;;;5068355;28;20090;-78
2022/09/16 08:03:12;;;;;;;12.90;6.95;;;20.20;99.90;;;;;;5069161;28;20088;-79
2022/09/16 08:05:37;;;;;;;23.08;11.07;;;20.20;99.90;;;;;;5071164;28;20560;-78
2022/09/16 08:08:03;;;;;;;12.52;8.35;;;20.10;99.90;;;;;;5074353;28;20051;-78
2022/09/16 08:10:29;;;;;;;10.07;7.82;;;20.10;99.90;;;;;;5071499;28;20920;-78
2022/09/16 08:12:55;;;;;;;11.05;6.22;;;20.20;99.90;;;;;;5076462;28;20044;-77
2022/09/16 08:15:21;;;;;;;9.05;5.03;;;20.20;99.90;;;;;;5076010;28;20024;-79
2022/09/16 08:17:49;;;;;;;5.90;4.72;;;20.40;99.90;;;;;;5076413;28;20023;-77
2022/09/16 08:20:15;;;;;;;10.07;5.30;;;20.50;99.90;;;;;;5060867;28;20056;-77
2022/09/16 08:22:41;;;;;;;9.68;4.82;;;20.50;99.90;;;;;;5066826;28;20070;-78
2022/09/16 08:25:07;;;;;;;7.88;4.20;;;20.50;99.90;;;;;;5070455;28;20032;-77
2022/09/16 08:27:37;;;;;;;10.10;5.07;;;20.60;99.90;;;;;;5059930;28;20052;-79
2022/09/16 08:30:03;;;;;;;9.25;5.43;;;20.60;99.90;;;;;;5072092;28;20025;-77
2022/09/16 08:32:30;;;;;;;8.57;4.88;;;20.60;99.90;;;;;;5064207;28;20019;-77
2022/09/16 08:34:58;;;;;;;11.40;5.53;;;20.70;99.90;;;;;;5067747;28;20020;-79
2022/09/16 08:37:26;;;;;;;7.40;4.65;;;20.70;99.90;;;;;;5011216;28;1394596;-77
2022/09/16 08:39:52;;;;;;;9.43;4.47;;;20.70;99.90;;;;;;5072234;28;20133;-77
2022/09/16 08:42:33;;;;;;;12.32;4.63;;;20.80;99.90;;;;;;5073634;28;20096;-77
2022/09/16 08:45:19;;;;;;;7.32;4.35;;;20.90;99.90;;;;;;5063400;28;20056;-79
2022/09/16 08:48:01;;;;;;;8.07;4.70;;;20.90;99.90;;;;;;5075090;28;20092;-77
2022/09/16 08:50:32;;;;;;;8.35;4.85;;;20.80;99.90;;;;;;5076352;28;20028;-78
2022/09/16 08:53:01;;;;;;;13.30;4.97;;;20.70;99.90;;;;;;5059664;28;20016;-77
2022/09/16 08:55:36;;;;;;;9.35;4.55;;;20.70;99.90;;;;;;5059398;28;20086;-79
2022/09/16 08:58:22;;;;;;;10.77;5.20;;;20.60;99.90;;;;;;5060779;28;20097;-78
2022/09/16 09:00:57;;;;;;;6.93;4.82;;;20.50;99.90;;;;;;5064753;28;20028;-77
2022/09/16 09:03:44;;;;;;;8.70;4.43;;;20.30;99.90;;;;;;5071136;28;20033;-78
2022/09/16 09:06:26;;;;;;;8.43;5.30;;;20.30;99.90;;;;;;5063694;28;20023;-78
2022/09/16 09:09:29;;;;;;;4.53;3.90;;;20.40;99.90;;;;;;5066858;28;20055;-79
2022/09/16 09:12:13;;;;;;;10.13;3.92;;;20.40;99.90;;;;;;5048105;28;20039;-78
2022/09/16 09:14:42;;;;;;;8.32;4.35;;;20.50;99.90;;;;;;5070412;28;20024;-77
2022/09/16 09:17:29;;;;;;;7.82;4.38;;;20.70;99.90;;;;;;5072710;28;20037;-77
2022/09/16 09:20:04;;;;;;;8.15;4.75;;;20.80;99.90;;;;;;5073285;28;20028;-79
2022/09/16 09:23:06;;;;;;;4.85;3.63;;;21.00;99.90;;;;;;5075798;28;20024;-78
2022/09/16 09:26:17;;;;;;;8.15;4.05;;;21.10;99.90;;;;;;5070536;28;20512;-78
2022/09/16 09:29:05;;;;;;;6.18;3.80;;;21.40;99.90;;;;;;5071226;28;20028;-77
2022/09/16 09:31:55;;;;;;;6.85;4.03;;;21.40;99.90;;;;;;5069609;28;20029;-77
2022/09/16 09:34:53;;;;;;;11.90;4.80;;;21.30;99.90;;;;;;5064885;28;20359;-77
2022/09/16 09:37:40;;;;;;;7.28;4.25;;;21.10;99.90;;;;;;5069859;28;20087;-77
2022/09/16 09:40:18;;;;;;;9.93;3.63;;;21.10;99.90;;;;;;5071418;28;20400;-76
2022/09/16 09:42:52;;;;;;;11.68;4.00;;;21.20;99.90;;;;;;5069941;28;20025;-77
2022/09/16 09:45:32;;;;;;;6.60;4.25;;;21.50;99.90;;;;;;5074412;28;20079;-78
2022/09/16 09:48:26;;;;;;;11.60;3.80;;;21.80;99.90;;;;;;5072679;28;20074;-77
2022/09/16 09:50:52;;;;;;;5.18;3.08;;;22.10;99.90;;;;;;5076161;28;20101;-78
2022/09/16 09:53:27;;;;;;;9.65;3.10;;;22.20;99.90;;;;;;5068423;28;20029;-77
2022/09/16 09:56:12;;;;;;;5.53;3.13;;;22.20;99.90;;;;;;5059724;28;20021;-79
2022/09/16 09:59:03;;;;;;;6.85;2.10;;;22.30;99.90;;;;;;5059161;28;20112;-77
2022/09/16 10:01:30;;;;;;;7.57;2.17;;;22.10;99.90;;;;;;5075605;28;20025;-77
2022/09/16 10:03:57;;;;;;;7.13;1.80;;;22.10;99.90;;;;;;5062914;28;20111;-76
2022/09/16 10:06:33;;;;;;;5.20;2.30;;;22.00;99.90;;;;;;5063678;28;20488;-77
2022/09/16 10:08:59;;;;;;;5.07;2.55;;;21.90;99.90;;;;;;5064767;28;20021;-77
2022/09/16 10:11:30;;;;;;;3.05;1.88;;;21.90;99.90;;;;;;5066040;28;20112;-76
2022/09/16 10:14:00;;;;;;;2.13;1.83;;;21.80;99.90;;;;;;5068183;28;20016;-76
2022/09/16 10:16:38;;;;;;;2.47;1.48;;;21.80;99.90;;;;;;5069570;28;20032;-76
2022/09/16 10:19:21;;;;;;;5.25;1.45;;;21.90;99.90;;;;;;5073398;28;20047;-76
2022/09/16 10:21:49;;;;;;;2.30;1.40;;;22.00;99.90;;;;;;5073552;28;20027;-77
2022/09/16 10:24:43;;;;;;;6.20;1.42;;;22.00;99.90;;;;;;5076317;28;20353;-78
2022/09/16 10:27:34;;;;;;;2.78;1.60;;;21.90;99.90;;;;;;5053549;28;20040;-77
2022/09/16 10:30:09;;;;;;;4.03;2.33;;;22.00;99.90;;;;;;5069488;28;20023;-76
2022/09/16 10:32:50;;;;;;;3.53;1.90;;;22.20;99.90;;;;;;5063903;28;20021;-76
2022/09/16 10:35:21;;;;;;;4.10;1.70;;;22.60;99.90;;;;;;5063537;28;20036;-77
2022/09/16 10:37:54;;;;;;;7.40;1.42;;;22.90;99.90;;;;;;5065796;28;20107;-79
2022/09/16 10:40:22;;;;;;;2.85;1.63;;;22.90;99.90;;;;;;5070909;28;20025;-77
2022/09/16 10:42:52;;;;;;;3.58;1.52;;;22.90;99.90;;;;;;5069581;28;20094;-78
2022/09/16 10:45:35;;;;;;;2.13;1.55;;;22.90;99.90;;;;;;5073809;28;20032;-79
2022/09/16 10:48:07;;;;;;;5.65;1.83;;;22.80;99.90;;;;;;5073969;28;20065;-79
2022/09/16 10:50:33;;;;;;;2.78;1.30;;;22.70;99.90;;;;;;5076240;28;20103;-79
2022/09/16 10:53:01;;;;;;;3.53;1.60;;;22.70;99.90;;;;;;5058292;28;20492;-78
2022/09/16 10:55:36;;;;;;;2.90;1.50;;;22.60;99.90;;;;;;5058299;28;20037;-79
2022/09/16 10:58:32;;;;;;;4.20;1.50;;;22.70;99.90;;;;;;5070344;28;20025;-78
2022/09/16 11:01:16;;;;;;;3.28;1.58;;;22.60;99.90;;;;;;5062600;28;20111;-79
2022/09/16 11:03:48;;;;;;;3.83;1.60;;;22.50;99.90;;;;;;5061237;28;20024;-78
2022/09/16 11:06:41;;;;;;;7.47;1.40;;;22.40;99.90;;;;;;5066619;28;20054;-77
2022/09/16 11:09:37;;;;;;;4.03;1.30;;;22.30;99.90;;;;;;5068870;28;20396;-76
2022/09/16 11:12:27;;;;;;;3.40;1.50;;;22.00;99.90;;;;;;5071122;28;20048;-76
2022/09/16 11:15:09;;;;;;;2.40;1.48;;;21.80;99.90;;;;;;5068355;28;20028;-76
2022/09/16 11:18:01;;;;;;;1.98;1.10;;;21.80;99.90;;;;;;5080186;28;20036;-77
2022/09/16 11:20:59;;;;;;;3.50;1.42;;;21.70;99.90;;;;;;5041979;28;20056;-78
2022/09/16 11:23:46;;;;;;;4.22;1.98;;;21.80;99.90;;;;;;5074438;28;20369;-76
2022/09/16 11:26:34;;;;;;;3.97;1.83;;;22.00;99.90;;;;;;5062280;28;20028;-75
2022/09/16 11:29:37;;;;;;;2.72;1.45;;;22.20;99.90;;;;;;5057847;28;20048;-77
2022/09/16 11:32:34;;;;;;;3.03;1.52;;;22.60;99.90;;;;;;5066328;28;20027;-76
2022/09/16 11:35:27;;;;;;;2.95;1.20;;;22.90;99.90;;;;;;5070261;28;20033;-76
2022/09/16 11:38:18;;;;;;;4.30;1.20;;;23.10;99.90;;;;;;5069915;28;20037;-77
2022/09/16 11:40:59;;;;;;;2.40;1.17;;;23.20;99.90;;;;;;5072317;28;20515;-79
2022/09/16 11:43:46;;;;;;;2.80;1.65;;;23.10;99.90;;;;;;5068726;28;20098;-75
2022/09/16 11:46:31;;;;;;;3.63;1.30;;;23.10;99.90;;;;;;5075057;28;20028;-77
2022/09/16 11:49:23;;;;;;;3.35;1.40;;;23.10;99.90;;;;;;5076518;28;20024;-79
2022/09/16 11:52:21;;;;;;;3.80;1.30;;;23.00;99.90;;;;;;5083878;28;20021;-78
2022/09/16 11:55:14;;;;;;;6.00;1.50;;;22.90;99.90;;;;;;5067436;28;20108;-78
2022/09/16 11:57:45;;;;;;;3.60;1.38;;;23.00;99.90;;;;;;5077570;28;20029;-79
2022/09/16 12:00:16;;;;;;;1.73;1.00;;;23.00;99.90;;;;;;5065947;28;20517;-79
2022/09/16 12:02:56;;;;;;;6.78;1.83;;;23.10;99.90;;;;;;5071545;28;20040;-79
2022/09/16 12:05:32;;;;;;;5.07;1.83;;;23.00;99.90;;;;;;5074270;28;20074;-77
2022/09/16 12:08:22;;;;;;;3.72;1.63;;;23.20;99.90;;;;;;5075894;28;20074;-78
2022/09/16 12:10:54;;;;;;;5.13;1.80;;;23.10;99.90;;;;;;5075450;28;20102;-78
2022/09/16 12:13:28;;;;;;;3.67;1.67;;;23.10;99.90;;;;;;5075367;28;20029;-79
2022/09/16 12:16:08;;;;;;;6.60;1.60;;;23.10;99.90;;;;;;5077392;28;20021;-79
2022/09/16 12:18:57;;;;;;;3.60;1.60;;;23.40;99.90;;;;;;5075553;28;20047;-77
2022/09/16 12:21:33;;;;;;;2.25;1.35;;;23.60;99.90;;;;;;5059061;28;20121;-76
2022/09/16 12:24:20;;;;;;;3.38;1.40;;;23.60;99.90;;;;;;5072723;28;20036;-76
2022/09/16 12:27:00;;;;;;;2.95;1.40;;;23.70;99.90;;;;;;5077711;28;20473;-78
2022/09/16 12:29:49;;;;;;;2.70;1.42;;;23.70;99.90;;;;;;5070020;28;20052;-78
2022/09/16 12:32:49;;;;;;;3.65;1.50;;;24.10;99.90;;;;;;5067981;28;20101;-76
2022/09/16 12:35:30;;;;;;;4.95;1.95;;;24.10;99.90;;;;;;5066012;28;20024;-77
2022/09/16 12:37:56;;;;;;;;;;;23.90;99.90;;;;;;5073514;28;20032;-77
2022/09/16 12:40:51;;;;;;;10.90;1.85;;;23.80;99.90;;;;;;5071817;28;19905;-76
2022/09/16 12:43:29;;;;;;;3.33;1.83;;;23.70;99.90;;;;;;5073991;28;20028;-78
2022/09/16 12:46:02;;;;;;;4.50;1.65;;;23.70;99.90;;;;;;5072149;28;20467;-76
2022/09/16 12:49:01;;;;;;;3.05;1.40;;;23.90;99.90;;;;;;5075624;28;20028;-78
2022/09/16 12:51:29;;;;;;;4.55;1.67;;;24.00;99.90;;;;;;5063894;28;20020;-77
2022/09/16 12:54:32;;;;;;;3.92;1.95;;;24.00;99.90;;;;;;5063880;28;20048;-74
2022/09/16 12:57:07;;;;;;;2.70;1.63;;;24.00;99.90;;;;;;5076912;28;20026;-79
2022/09/16 12:59:51;;;;;;;4.22;1.90;;;23.90;99.90;;;;;;5064125;28;20036;-78
2022/09/16 13:02:25;;;;;;;4.97;1.50;;;23.80;99.90;;;;;;5065457;28;20021;-76
2022/09/16 13:04:57;;;;;;;2.72;1.65;;;23.90;99.90;;;;;;5065706;28;20025;-76
2022/09/16 13:07:34;;;;;;;4.75;1.88;;;23.90;99.90;;;;;;5069678;28;20100;-75
2022/09/16 13:10:18;;;;;;;5.10;1.90;;;24.00;99.90;;;;;;5067483;28;20017;-77
2022/09/16 13:12:55;;;;;;;5.65;1.48;;;24.10;99.90;;;;;;5067100;28;20020;-76
2022/09/16 13:15:28;;;;;;;8.48;1.85;;;24.20;99.90;;;;;;5071598;28;20016;-75
2022/09/16 13:17:55;;;;;;;6.40;2.00;;;24.30;99.90;;;;;;5073771;28;20044;-76
2022/09/16 13:20:37;;;;;;;4.88;2.20;;;24.40;99.90;;;;;;5074126;28;20029;-78
2022/09/16 13:23:40;;;;;;;7.60;2.28;;;24.20;99.90;;;;;;5075590;28;20025;-76
2022/09/16 13:26:08;;;;;;;2.55;1.40;;;24.00;99.90;;;;;;5045361;28;20531;-79
2022/09/16 13:28:42;;;;;;;8.48;2.22;;;24.00;99.90;;;;;;5060199;28;20397;-79